createdAt,value
2019-02-02T00:02:33.856Z,26.23
2019-02-02T00:05:37.481Z,28.53
2019-02-02T00:08:41.092Z,26.33
2019-02-02T00:11:44.821Z,26.40
2019-02-02T00:14:48.383Z,24.23
2019-02-02T00:17:52.095Z,27.43
2019-02-02T00:20:55.764Z,27.67
2019-02-02T00:23:59.379Z,27.13
2019-02-02T00:27:03.131Z,25.77
2019-02-02T00:30:08.042Z,27.50
2019-02-02T00:33:11.798Z,28.30
2019-02-02T00:36:15.441Z,26.30
2019-02-02T00:39:19.095Z,27.40
2019-02-02T00:42:22.756Z,27.67
2019-02-02T00:45:26.473Z,27.50
2019-02-02T00:48:30.240Z,26.67
2019-02-02T00:51:33.893Z,27.87
2019-02-02T00:54:37.553Z,27.30
2019-02-02T00:57:52.662Z,29.67
2019-02-02T01:00:44.802Z,28.13
2019-02-02T01:03:48.451Z,28.80
2019-02-02T01:06:52.104Z,26.50
2019-02-02T01:09:55.724Z,30.60
2019-02-02T01:12:59.482Z,25.57
2019-02-02T01:16:03.133Z,27.97
2019-02-02T01:19:06.844Z,24.60
2019-02-02T01:22:10.538Z,25.23
2019-02-02T01:25:14.330Z,29.73
2019-02-02T01:28:17.898Z,27.03
2019-02-02T01:31:21.645Z,25.67
2019-02-02T01:34:25.167Z,26.73
2019-02-02T01:37:28.889Z,24.97
2019-02-02T01:40:32.510Z,29.40
2019-02-02T01:43:36.112Z,28.27
2019-02-02T01:46:39.688Z,27.97
2019-02-02T01:49:43.377Z,29.07
2019-02-02T01:52:47.028Z,28.10
2019-02-02T01:55:50.609Z,27.23
2019-02-02T01:58:54.285Z,28.27
2019-02-02T02:01:57.795Z,26.67
2019-02-02T02:05:01.556Z,27.93
2019-02-02T02:08:05.136Z,25.77
2019-02-02T02:11:08.774Z,29.77
2019-02-02T02:14:12.501Z,26.53
2019-02-02T02:17:16.131Z,35.37
2019-02-02T02:20:19.831Z,37.30
2019-02-02T02:23:23.475Z,30.70
2019-02-02T02:26:27.101Z,29.98
2019-02-02T02:29:30.712Z,28.43
2019-02-02T02:32:34.334Z,28.50
2019-02-02T02:35:37.857Z,30.73
2019-02-02T02:38:41.449Z,28.07
2019-02-02T02:41:45.030Z,27.50
2019-02-02T02:44:48.581Z,30.53
2019-02-02T02:47:52.135Z,29.73
2019-02-02T02:50:55.835Z,30.43
2019-02-02T02:53:59.488Z,30.40
2019-02-02T02:57:03.033Z,33.37
2019-02-02T03:00:12.033Z,29.50
2019-02-02T03:03:15.719Z,30.20
2019-02-02T03:06:19.330Z,26.53
2019-02-02T03:09:22.975Z,27.40
2019-02-02T03:12:26.638Z,24.83
2019-02-02T03:15:30.236Z,24.10
2019-02-02T03:18:33.817Z,28.10
2019-02-02T03:21:37.399Z,28.35
2019-02-02T03:24:41.035Z,28.13
2019-02-02T03:27:44.636Z,26.80
2019-02-02T03:30:48.267Z,25.60
2019-02-02T03:33:51.800Z,25.65
2019-02-02T03:36:55.405Z,29.10
2019-02-02T03:39:58.914Z,28.27
2019-02-02T03:43:02.507Z,25.77
2019-02-02T03:46:06.100Z,27.58
2019-02-02T03:49:09.680Z,27.77
2019-02-02T03:52:13.271Z,28.77
2019-02-02T03:55:16.899Z,26.57
2019-02-02T03:58:20.615Z,27.53
2019-02-02T04:01:24.291Z,26.87
2019-02-02T04:04:27.979Z,27.80
2019-02-02T04:07:31.586Z,27.93
2019-02-02T04:10:35.301Z,26.73
2019-02-02T04:13:38.949Z,30.23
2019-02-02T04:16:42.627Z,27.60
2019-02-02T04:19:46.267Z,27.58
2019-02-02T04:22:50.166Z,26.47
2019-02-02T04:25:53.856Z,29.35
2019-02-02T04:28:57.580Z,27.07
2019-02-02T04:32:01.260Z,31.00
2019-02-02T04:35:05.818Z,26.77
2019-02-02T04:38:09.421Z,30.60
2019-02-02T04:41:13.312Z,28.27
2019-02-02T04:44:17.914Z,27.97
2019-02-02T04:47:21.502Z,29.80
2019-02-02T04:50:25.167Z,28.53
2019-02-02T04:53:28.933Z,32.80
2019-02-02T04:56:32.546Z,31.03
2019-02-02T04:59:36.185Z,31.30
2019-02-02T05:02:40.043Z,30.03
2019-02-02T05:05:43.795Z,34.20
2019-02-02T05:08:47.510Z,30.33
2019-02-02T05:11:51.203Z,30.03
2019-02-02T05:14:54.884Z,33.53
2019-02-02T05:17:58.519Z,31.20
2019-02-02T05:21:02.147Z,33.23
2019-02-02T05:24:05.814Z,29.63
2019-02-02T05:27:09.390Z,30.57
2019-02-02T05:30:18.538Z,32.87
2019-02-02T05:33:22.127Z,30.80
2019-02-02T05:36:25.815Z,36.43
2019-02-02T05:39:29.622Z,31.57
2019-02-02T05:42:33.336Z,32.10
2019-02-02T05:45:37.041Z,34.67
2019-02-02T05:48:40.636Z,36.33
2019-02-02T05:51:44.282Z,36.83
2019-02-02T05:54:48.054Z,36.90
2019-02-02T05:57:51.681Z,35.07
2019-02-02T06:00:55.977Z,36.53
2019-02-02T06:03:59.760Z,36.30
2019-02-02T06:07:03.382Z,36.93
2019-02-02T06:10:09.034Z,35.80
2019-02-02T06:13:12.833Z,36.07
2019-02-02T06:16:16.489Z,36.17
2019-02-02T06:19:20.161Z,37.70
2019-02-02T06:22:23.789Z,36.40
2019-02-02T06:25:27.543Z,37.53
2019-02-02T06:28:31.241Z,30.50
2019-02-02T06:31:34.765Z,35.63
2019-02-02T06:34:38.394Z,38.85
2019-02-02T06:37:42.135Z,39.93
2019-02-02T06:40:45.839Z,40.97
2019-02-02T06:43:49.629Z,43.10
2019-02-02T06:46:53.286Z,41.70
2019-02-02T06:49:56.993Z,40.97
2019-02-02T06:53:00.884Z,41.63
2019-02-02T06:56:04.593Z,36.20
2019-02-02T06:59:08.406Z,36.90
2019-02-02T07:02:12.459Z,37.13
2019-02-02T07:05:16.097Z,37.67
2019-02-02T07:08:19.771Z,42.33
2019-02-02T07:11:23.432Z,34.80
2019-02-02T07:14:27.027Z,32.20
2019-02-02T07:17:30.625Z,37.17
2019-02-02T07:20:34.387Z,35.53
2019-02-02T07:23:38.151Z,35.10
2019-02-02T07:26:41.781Z,34.77
2019-02-02T07:29:45.376Z,36.40
2019-02-02T07:32:48.986Z,37.60
2019-02-02T07:35:54.110Z,38.03
2019-02-02T07:38:56.306Z,34.10
2019-02-02T07:41:59.868Z,37.67
2019-02-02T07:45:03.539Z,34.33
2019-02-02T07:48:07.198Z,34.57
2019-02-02T07:51:10.808Z,37.77
2019-02-02T07:54:14.394Z,34.27
2019-02-02T07:57:18.007Z,32.27
2019-02-02T08:00:25.855Z,34.20
2019-02-02T08:03:29.429Z,34.43
2019-02-02T08:06:33.049Z,38.13
2019-02-02T08:09:36.641Z,35.77
2019-02-02T08:12:40.798Z,35.33
2019-02-02T08:15:44.406Z,29.17
2019-02-02T08:18:48.119Z,30.13
2019-02-02T08:21:51.721Z,28.63
2019-02-02T08:24:55.274Z,30.47
2019-02-02T08:27:59.029Z,33.80
2019-02-02T08:31:02.560Z,33.13
2019-02-02T08:34:06.148Z,35.10
2019-02-02T08:37:09.799Z,31.97
2019-02-02T08:40:13.967Z,30.63
2019-02-02T08:43:17.595Z,28.77
2019-02-02T08:46:21.242Z,30.57
2019-02-02T08:49:24.870Z,34.93
2019-02-02T08:52:28.592Z,34.30
2019-02-02T08:55:32.545Z,30.47
2019-02-02T08:58:36.288Z,34.40
2019-02-02T09:01:40.123Z,30.50
2019-02-02T09:04:43.916Z,29.17
2019-02-02T09:07:47.775Z,28.17
2019-02-02T09:10:51.465Z,30.43
2019-02-02T09:13:55.346Z,29.63
2019-02-02T09:16:59.047Z,31.97
2019-02-02T09:20:02.832Z,32.50
2019-02-02T09:23:06.851Z,32.63
2019-02-02T09:26:10.530Z,33.93
2019-02-02T09:29:14.229Z,33.60
2019-02-02T09:32:17.914Z,32.97
2019-02-02T09:35:22.046Z,34.33
2019-02-02T09:38:25.769Z,37.90
2019-02-02T09:41:29.430Z,36.13
2019-02-02T09:44:34.001Z,39.63
2019-02-02T09:47:37.738Z,40.30
2019-02-02T09:50:41.276Z,48.25
2019-02-02T09:53:45.037Z,44.63
2019-02-02T09:56:48.582Z,42.93
2019-02-02T09:59:53.170Z,46.03
2019-02-02T10:02:58.014Z,44.27
2019-02-02T10:06:01.498Z,44.13
2019-02-02T10:09:08.051Z,43.83
2019-02-02T10:12:11.969Z,42.47
2019-02-02T10:15:15.662Z,42.33
2019-02-02T10:18:19.333Z,38.87
2019-02-02T10:21:23.077Z,41.90
2019-02-02T10:24:28.646Z,37.10
2019-02-02T10:27:30.342Z,39.47
2019-02-02T10:30:39.815Z,38.17
2019-02-02T10:33:43.560Z,37.23
2019-02-02T10:36:47.233Z,35.80
2019-02-02T10:39:50.974Z,34.27
2019-02-02T10:42:54.651Z,34.63
2019-02-02T10:45:58.398Z,32.70
2019-02-02T10:49:02.135Z,31.70
2019-02-02T10:52:09.150Z,31.67
2019-02-02T10:55:13.321Z,31.03
2019-02-02T10:58:17.327Z,28.98
2019-02-02T11:01:21.338Z,31.20
2019-02-02T11:04:25.199Z,30.40
2019-02-02T11:07:29.131Z,33.63
2019-02-02T11:10:32.860Z,33.13
2019-02-02T11:13:37.598Z,34.77
2019-02-02T11:16:41.240Z,31.90
2019-02-02T11:19:45.020Z,32.30
2019-02-02T11:22:48.579Z,34.77
2019-02-02T11:25:53.451Z,40.67
2019-02-02T11:28:57.107Z,39.97
2019-02-02T11:32:03.016Z,39.93
2019-02-02T11:35:05.745Z,43.20
2019-02-02T11:38:09.457Z,34.17
2019-02-02T11:41:13.171Z,36.27
2019-02-02T11:44:19.843Z,38.40
2019-02-02T11:47:20.781Z,34.47
2019-02-02T11:50:24.864Z,36.50
2019-02-02T11:53:28.528Z,37.10
2019-02-02T11:56:32.244Z,36.97
2019-02-02T11:59:35.863Z,34.90
2019-02-02T12:02:49.058Z,35.90
2019-02-02T12:05:43.303Z,38.77
2019-02-02T12:08:49.300Z,39.03
2019-02-02T12:11:51.220Z,38.60
2019-02-02T12:14:57.007Z,36.47
2019-02-02T12:17:58.969Z,37.73
2019-02-02T12:21:02.705Z,36.53
2019-02-02T12:24:14.393Z,35.33
2019-02-02T12:27:15.385Z,35.57
2019-02-02T12:30:21.112Z,31.33
2019-02-02T12:33:25.944Z,33.87
2019-02-02T12:36:28.263Z,33.47
2019-02-02T12:39:31.840Z,32.90
2019-02-02T12:42:35.456Z,30.70
2019-02-02T12:45:42.846Z,30.87
2019-02-02T12:48:46.472Z,30.15
2019-02-02T12:51:50.174Z,31.30
2019-02-02T12:54:53.924Z,29.40
2019-02-02T12:57:57.494Z,33.57
2019-02-02T13:01:01.061Z,29.03
2019-02-02T13:04:05.536Z,32.30
2019-02-02T13:07:08.422Z,30.93
2019-02-02T13:10:15.105Z,27.30
2019-02-02T13:13:22.399Z,26.43
2019-02-02T13:16:26.018Z,28.20
2019-02-02T13:19:30.820Z,25.93
2019-02-02T13:22:34.611Z,27.25
2019-02-02T13:25:40.955Z,28.67
2019-02-02T13:28:44.806Z,29.60
2019-02-02T13:31:48.526Z,23.95
2019-02-02T13:34:52.143Z,26.10
2019-02-02T13:37:55.791Z,30.17
2019-02-02T13:40:59.478Z,26.63
2019-02-02T13:44:05.554Z,27.23
2019-02-02T13:47:13.809Z,28.13
2019-02-02T13:50:18.306Z,24.93
2019-02-02T13:53:23.018Z,24.10
2019-02-02T13:56:27.276Z,25.33
2019-02-02T13:59:31.564Z,24.77
2019-02-02T14:02:38.214Z,25.87
2019-02-02T14:05:43.328Z,26.80
2019-02-02T14:08:48.390Z,31.27
2019-02-02T14:11:59.521Z,23.30
2019-02-02T14:15:06.959Z,21.30
2019-02-02T14:18:14.154Z,24.57
2019-02-02T14:21:21.289Z,22.60
2019-02-02T14:24:28.883Z,20.43
2019-02-02T14:27:36.041Z,19.17
2019-02-02T14:30:40.340Z,23.07
2019-02-02T14:33:47.146Z,21.42
2019-02-02T14:36:52.936Z,20.03
2019-02-02T14:39:58.002Z,21.40
2019-02-02T14:43:01.962Z,20.23
2019-02-02T14:46:06.003Z,19.10
2019-02-02T14:49:09.650Z,20.20
2019-02-02T14:52:13.398Z,20.90
2019-02-02T14:55:18.989Z,21.10
2019-02-02T14:58:22.626Z,20.85
2019-02-02T15:01:26.373Z,20.53
2019-02-02T15:04:30.022Z,20.57
2019-02-02T15:07:33.607Z,19.67
2019-02-02T15:10:37.380Z,18.42
2019-02-02T15:13:40.989Z,20.63
2019-02-02T15:16:44.734Z,19.37
2019-02-02T15:19:48.303Z,16.73
2019-02-02T15:22:51.993Z,19.73
2019-02-02T15:25:55.627Z,18.67
2019-02-02T15:28:59.320Z,17.63
2019-02-02T15:32:03.026Z,21.87
2019-02-02T15:35:06.854Z,32.30
2019-02-02T15:38:10.519Z,26.20
2019-02-02T15:41:14.081Z,27.23
2019-02-02T15:44:17.764Z,23.17
2019-02-02T15:47:21.432Z,22.80
2019-02-02T15:50:25.142Z,22.23
2019-02-02T15:53:28.932Z,23.07
2019-02-02T15:56:32.547Z,37.97
2019-02-02T15:59:38.730Z,26.80
2019-02-02T16:02:39.808Z,28.20
2019-02-02T16:05:43.469Z,25.37
2019-02-02T16:08:47.201Z,23.63
2019-02-02T16:11:51.001Z,21.70
2019-02-02T16:14:54.803Z,22.63
2019-02-02T16:17:58.490Z,22.03
2019-02-02T16:21:02.112Z,36.47
2019-02-02T16:24:05.785Z,41.37
2019-02-02T16:27:09.422Z,44.67
2019-02-02T16:30:15.404Z,49.37
2019-02-02T16:33:19.090Z,49.73
2019-02-02T16:36:22.799Z,48.97
2019-02-02T16:39:26.421Z,54.27
2019-02-02T16:42:30.177Z,60.27
2019-02-02T16:45:33.883Z,47.67
2019-02-02T16:48:37.664Z,42.17
2019-02-02T16:51:41.409Z,44.90
2019-02-02T16:54:45.038Z,43.73
2019-02-02T16:57:48.660Z,46.70
2019-02-02T17:00:52.247Z,44.55
2019-02-02T17:03:55.863Z,49.13
2019-02-02T17:06:59.711Z,60.90
2019-02-02T17:10:04.547Z,63.33
2019-02-02T17:13:08.309Z,58.95
2019-02-02T17:16:12.074Z,60.93
2019-02-02T17:19:15.773Z,51.83
2019-02-02T17:22:19.561Z,49.80
2019-02-02T17:25:23.262Z,48.03
2019-02-02T17:28:26.860Z,47.20
2019-02-02T17:31:30.640Z,50.13
2019-02-02T17:34:34.326Z,52.20
2019-02-02T17:37:39.043Z,54.13
2019-02-02T17:40:42.784Z,50.67
2019-02-02T17:43:46.285Z,50.73
2019-02-02T17:46:49.970Z,54.70
2019-02-02T17:49:53.626Z,57.10
2019-02-02T17:52:57.277Z,56.50
2019-02-02T17:56:01.079Z,51.85
2019-02-02T17:59:05.103Z,49.70
2019-02-02T18:02:08.770Z,49.03
2019-02-02T18:05:12.434Z,44.40
2019-02-02T18:08:16.072Z,42.53
2019-02-02T18:11:19.667Z,37.83
2019-02-02T18:14:23.329Z,33.50
2019-02-02T18:17:27.061Z,31.73
2019-02-02T18:20:30.757Z,37.20
2019-02-02T18:23:34.426Z,34.73
2019-02-02T18:26:38.035Z,34.20
2019-02-02T18:29:41.644Z,32.47
2019-02-02T18:32:45.287Z,31.47
2019-02-02T18:35:48.929Z,32.23
2019-02-02T18:38:52.529Z,28.73
2019-02-02T18:41:56.155Z,29.13
2019-02-02T18:44:59.802Z,32.27
2019-02-02T18:48:03.579Z,30.97
2019-02-02T18:51:07.306Z,30.10
2019-02-02T18:54:10.894Z,29.37
2019-02-02T18:57:14.506Z,33.60
2019-02-02T19:00:19.266Z,45.63
2019-02-02T19:03:23.076Z,37.30
2019-02-02T19:06:26.744Z,40.57
2019-02-02T19:09:30.422Z,40.27
2019-02-02T19:12:34.132Z,50.43
2019-02-02T19:15:37.889Z,38.07
2019-02-02T19:18:41.488Z,35.40
2019-02-02T19:21:45.028Z,31.40
2019-02-02T19:24:48.729Z,33.00
2019-02-02T19:27:52.461Z,33.07
2019-02-02T19:30:56.156Z,31.62
2019-02-02T19:33:59.869Z,33.00
2019-02-02T19:37:03.539Z,29.55
2019-02-02T19:40:07.739Z,28.17
2019-02-02T19:43:11.386Z,27.10
2019-02-02T19:46:15.049Z,27.20
2019-02-02T19:49:18.542Z,27.00
2019-02-02T19:52:22.294Z,25.27
2019-02-02T19:55:25.871Z,26.07
2019-02-02T19:58:29.556Z,32.97
2019-02-02T20:01:33.202Z,32.77
2019-02-02T20:04:36.860Z,30.60
2019-02-02T20:07:40.591Z,33.30
2019-02-02T20:10:44.275Z,32.83
2019-02-02T20:13:47.975Z,36.42
2019-02-02T20:16:51.659Z,28.07
2019-02-02T20:19:55.399Z,26.43
2019-02-02T20:22:59.067Z,22.65
2019-02-02T20:26:02.739Z,28.73
2019-02-02T20:29:06.398Z,26.77
2019-02-02T20:32:10.091Z,27.20
2019-02-02T20:35:14.103Z,25.43
2019-02-02T20:38:17.742Z,23.40
2019-02-02T20:41:21.362Z,27.07
2019-02-02T20:44:25.010Z,32.85
2019-02-02T20:47:28.526Z,37.83
2019-02-02T20:50:35.715Z,40.97
2019-02-02T20:53:39.272Z,51.33
2019-02-02T20:56:42.888Z,47.93
2019-02-02T20:59:46.525Z,43.77
2019-02-02T21:02:50.124Z,50.43
2019-02-02T21:05:53.722Z,54.40
2019-02-02T21:08:57.378Z,51.27
2019-02-02T21:12:00.998Z,53.90
2019-02-02T21:15:05.446Z,52.17
2019-02-02T21:18:11.842Z,52.97
2019-02-02T21:21:12.756Z,53.20
2019-02-02T21:24:16.423Z,51.80
2019-02-02T21:27:19.926Z,56.50
2019-02-02T21:30:26.415Z,53.10
2019-02-02T21:33:30.047Z,46.70
2019-02-02T21:36:33.586Z,49.47
2019-02-02T21:39:37.247Z,51.30
2019-02-02T21:42:41.658Z,49.67
2019-02-02T21:45:45.267Z,52.40
2019-02-02T21:48:48.911Z,48.93
2019-02-02T21:51:52.468Z,54.90
2019-02-02T21:54:56.117Z,48.97
2019-02-02T21:57:59.843Z,41.93
2019-02-02T22:01:03.520Z,48.10
2019-02-02T22:04:07.110Z,42.37
2019-02-02T22:07:10.747Z,50.83
2019-02-02T22:10:14.454Z,43.73
2019-02-02T22:13:18.199Z,43.17
2019-02-02T22:16:21.767Z,41.53
2019-02-02T22:19:25.400Z,44.20
2019-02-02T22:22:29.851Z,46.47
2019-02-02T22:25:33.503Z,44.53
2019-02-02T22:28:37.183Z,43.67
2019-02-02T22:31:40.863Z,44.10
2019-02-02T22:34:44.614Z,45.60
2019-02-02T22:37:48.300Z,46.23
2019-02-02T22:40:51.991Z,46.33
2019-02-02T22:43:55.702Z,45.27
2019-02-02T22:46:59.403Z,47.90
2019-02-02T22:50:03.272Z,48.47
2019-02-02T22:53:06.969Z,51.97
2019-02-02T22:56:11.659Z,52.80
2019-02-02T22:59:15.451Z,54.50
2019-02-02T23:02:21.344Z,52.60
2019-02-02T23:05:34.365Z,55.43
2019-02-02T23:09:05.965Z,52.03
2019-02-02T23:12:23.290Z,53.83
2019-02-02T23:16:41.348Z,55.77
2019-02-02T23:19:45.031Z,50.77
2019-02-02T23:22:48.814Z,54.43
2019-02-02T23:25:52.587Z,51.73
2019-02-02T23:28:56.456Z,56.90
2019-02-02T23:32:01.211Z,53.93
2019-02-02T23:35:05.003Z,54.00
2019-02-02T23:38:08.731Z,53.20
2019-02-02T23:41:12.409Z,58.87
2019-02-02T23:44:16.143Z,56.33
2019-02-02T23:47:19.851Z,52.30
2019-02-02T23:50:23.508Z,54.07
2019-02-02T23:53:27.246Z,53.77
2019-02-02T23:56:30.923Z,50.93
2019-02-02T23:59:35.293Z,50.87
